Time;durP1;ratioP1;P1;durP2;ratioP2;P2;SDS_P1;SDS_P2;PMS_P1;PMS_P2;Temp;Humidity;BMP_temperature;BMP_pressure;BME280_temperature;BME280_humidity;BME280_pressure;Samples;Min_cycle;Max_cycle;Signal;HPM_P1;HPM_P2
2024/04/19 00:00:22;;;;;;;;;;;;;;;-0.25;81.48;101064.72;5465169;26;19927;-69
2024/04/19 00:02:47;;;;;;;;;;;;;;;-0.31;82.16;101063.25;5526162;26;19928;-70
2024/04/19 00:05:16;;;;;;;;;;;;;;;-0.36;82.87;101062.66;5525601;26;19934;-69
2024/04/19 00:07:41;;;;;;;;;;;;;;;-0.40;83.68;101058.53;5525431;26;20381;-71
2024/04/19 00:10:07;;;;;;;;;;;;;;;-0.38;83.56;101058.44;5492689;26;19927;-71
2024/04/19 00:12:32;;;;;;;;;;;;;;;-0.42;84.30;101052.56;5525623;26;19927;-70
2024/04/19 00:14:58;;;;;;;;;;;;;;;-0.41;84.06;101056.84;5527106;26;20369;-70
2024/04/19 00:17:23;;;;;;;;;;;;;;;-0.38;84.34;101053.22;5493243;26;20387;-69
2024/04/19 00:19:48;;;;;;;;;;;;;;;-0.36;85.10;101057.44;5525425;26;19996;-70
2024/04/19 00:22:14;;;;;;;;;;;;;;;-0.36;84.66;101049.59;5526024;26;19935;-69
2024/04/19 00:24:39;;;;;;;;;;;;;;;-0.39;86.14;101057.59;5525458;26;20005;-70
2024/04/19 00:27:05;;;;;;;;;;;;;;;-0.42;86.72;101046.47;5524835;26;20389;-70
2024/04/19 00:29:30;;;;;;;;;;;;;;;-0.40;86.95;101060.31;5525385;26;20262;-71
2024/04/19 00:31:55;;;;;;;;;;;;;;;-0.39;87.00;101054.16;5494711;26;20375;-70
2024/04/19 00:34:20;;;;;;;;;;;;;;;-0.44;88.18;101050.94;5462366;26;20398;-70
2024/04/19 00:36:46;;;;;;;;;;;;;;;-0.43;88.08;101043.00;5491981;26;19936;-70
2024/04/19 00:39:11;;;;;;;;;;;;;;;-0.43;89.04;101047.41;5492533;26;20008;-69
2024/04/19 00:41:37;;;;;;;;;;;;;;;-0.46;89.10;101040.56;5524518;26;20386;-70
2024/04/19 00:44:02;;;;;;;;;;;;;;;-0.53;89.57;101041.84;5492724;26;19943;-69
2024/04/19 00:46:27;;;;;;;;;;;;;;;-0.56;89.20;101036.78;5493176;26;19927;-71
2024/04/19 00:48:53;;;;;;;;;;;;;;;-0.63;89.30;101028.41;5524117;26;19928;-70
2024/04/19 00:51:19;;;;;;;;;;;;;;;-0.64;89.61;101024.09;5525052;26;19928;-71
2024/04/19 00:53:44;;;;;;;;;;;;;;;-0.65;89.66;101024.19;5524608;26;19928;-73
2024/04/19 00:56:10;;;;;;;;;;;;;;;-0.65;89.62;101025.03;5524871;26;20264;-69
2024/04/19 00:58:35;;;;;;;;;;;;;;;-0.60;88.89;101022.16;5524865;26;19927;-71
2024/04/19 01:01:04;;;;;;;;;;;;;;;-0.55;88.65;101014.94;5524288;26;20389;-70
2024/04/19 01:03:30;;;;;;;;;;;;;;;-0.53;88.02;101012.22;5530288;26;19935;-70
2024/04/19 01:05:55;;;;;;;;;;;;;;;-0.56;88.00;101008.00;5493724;26;19927;-72
2024/04/19 01:08:21;;;;;;;;;;;;;;;-0.54;88.38;101011.38;5492181;26;20932;-69
2024/04/19 01:10:46;;;;;;;;;;;;;;;-0.56;87.84;101001.94;5492691;26;19955;-70
2024/04/19 01:13:12;;;;;;;;;;;;;;;-0.66;87.95;100991.13;5524388;26;19927;-70
2024/04/19 01:15:37;;;;;;;;;;;;;;;-0.73;88.21;100987.16;5524665;26;19931;-71
2024/04/19 01:18:03;;;;;;;;;;;;;;;-0.72;88.20;100986.25;5526185;26;19928;-71
2024/04/19 01:20:28;;;;;;;;;;;;;;;-0.75;87.99;100987.25;5493940;26;19928;-69
2024/04/19 01:22:54;;;;;;;;;;;;;;;-0.77;87.90;100980.44;5524872;26;19938;-70
2024/04/19 01:25:32;;;;;;;;;;;;;;;-0.83;88.30;100975.53;5523842;26;20375;-72
2024/04/19 01:27:57;;;;;;;;;;;;;;;-0.87;88.39;100968.75;5524478;26;20011;-70
2024/04/19 01:30:22;;;;;;;;;;;;;;;-0.88;88.62;100970.53;5492055;26;19936;-70
2024/04/19 01:32:48;;;;;;;;;;;;;;;-0.86;88.46;100962.63;5524058;26;19960;-70
2024/04/19 01:35:13;;;;;;;;;;;;;;;-0.88;88.29;100962.69;5525842;26;19928;-70
2024/04/19 01:37:39;;;;;;;;;;;;;;;-0.85;87.69;100946.03;5524208;26;19944;-69
2024/04/19 01:40:05;;;;;;;;;;;;;;;-0.92;87.30;100948.09;5523979;26;19927;-70
2024/04/19 01:42:30;;;;;;;;;;;;;;;-0.96;87.94;100957.91;5523842;26;19927;-70
2024/04/19 01:44:56;;;;;;;;;;;;;;;-0.94;87.68;100955.19;5491192;26;19934;-70
2024/04/19 01:47:21;;;;;;;;;;;;;;;-0.93;87.41;100957.72;5523684;26;19927;-69
2024/04/19 01:49:46;;;;;;;;;;;;;;;-0.94;87.13;100950.81;5524040;26;19991;-70
2024/04/19 01:52:12;;;;;;;;;;;;;;;-0.91;87.08;100949.78;5492689;26;19936;-69
2024/04/19 01:54:37;;;;;;;;;;;;;;;-0.91;86.92;100954.19;5523899;26;19928;-70
2024/04/19 01:57:03;;;;;;;;;;;;;;;-0.92;86.90;100948.09;5524044;26;19927;-70
2024/04/19 01:59:28;;;;;;;;;;;;;;;-0.98;87.07;100954.53;5525773;26;20298;-69
2024/04/19 02:01:54;;;;;;;;;;;;;;;-1.03;87.14;100946.09;5465089;26;19934;-69
2024/04/19 02:04:19;;;;;;;;;;;;;;;-0.99;86.65;100947.63;5528470;26;19928;-70
2024/04/19 02:06:45;;;;;;;;;;;;;;;-0.97;85.94;100934.44;5497930;26;19942;-70
2024/04/19 02:09:10;;;;;;;;;;;;;;;-1.01;85.78;100939.00;5527634;26;20351;-70
2024/04/19 02:11:35;;;;;;;;;;;;;;;-1.09;86.16;100946.44;5527440;26;20299;-70
2024/04/19 02:14:01;;;;;;;;;;;;;;;-1.06;86.67;100951.50;5527097;26;20377;-70
2024/04/19 02:16:26;;;;;;;;;;;;;;;-1.06;85.93;100938.44;5527310;26;20002;-70
2024/04/19 02:19:11;;;;;;;;;;;;;;;-1.09;86.09;100925.53;5475147;26;19931;-70
2024/04/19 02:21:37;;;;;;;;;;;;;;;-1.08;86.46;100927.22;5495960;26;19928;-69
2024/04/19 02:24:06;;;;;;;;;;;;;;;-1.04;85.98;100918.28;5529654;26;20439;-70
2024/04/19 02:26:32;;;;;;;;;;;;;;;-1.06;85.97;100919.28;5494428;26;19934;-70
2024/04/19 02:31:41;;;;;;;;;;;;;;;-1.07;85.94;100902.75;5527138;26;19934;-71
2024/04/19 02:34:06;;;;;;;;;;;;;;;-1.09;86.75;100899.38;5526642;26;20311;-71
2024/04/19 02:36:33;;;;;;;;;;;;;;;-1.10;86.14;100897.72;5494131;26;20282;-72
2024/04/19 02:38:58;;;;;;;;;;;;;;;-1.10;85.82;100904.72;5499472;26;19934;-75
2024/04/19 02:41:24;;;;;;;;;;;;;;;-1.12;85.84;100889.09;5465789;26;19927;-72
2024/04/19 02:43:49;;;;;;;;;;;;;;;-1.18;85.84;100880.75;5494804;26;19957;-71
2024/04/19 02:46:16;;;;;;;;;;;;;;;-1.26;86.19;100892.47;5526768;26;19927;-72
2024/04/19 02:48:41;;;;;;;;;;;;;;;-1.26;86.97;100889.00;5494580;26;19964;-71
2024/04/19 02:51:06;;;;;;;;;;;;;;;-1.24;86.56;100887.16;5463795;26;20290;-72
2024/04/19 02:53:32;;;;;;;;;;;;;;;-1.23;86.07;100882.78;5527976;26;19934;-72
2024/04/19 02:55:58;;;;;;;;;;;;;;;-1.20;85.76;100877.38;5527740;26;19999;-71
2024/04/19 02:58:24;;;;;;;;;;;;;;;-1.28;85.22;100873.41;5526903;26;19935;-72
2024/04/19 03:00:49;;;;;;;;;;;;;;;-1.26;85.31;100881.16;5494558;26;19994;-73
2024/04/19 03:03:15;;;;;;;;;;;;;;;-1.28;84.62;100862.97;5527473;26;19927;-72
2024/04/19 03:05:40;;;;;;;;;;;;;;;-1.22;84.71;100871.38;5493669;26;19995;-70
2024/04/19 03:08:06;;;;;;;;;;;;;;;-1.26;84.62;100865.50;5526773;26;19939;-71
2024/04/19 03:10:31;;;;;;;;;;;;;;;-1.26;84.61;100868.09;5529972;26;19935;-71
2024/04/19 03:12:56;;;;;;;;;;;;;;;-1.27;84.35;100869.03;5526973;26;19936;-71
2024/04/19 03:15:21;;;;;;;;;;;;;;;-1.27;84.42;100863.81;5493719;26;19931;-71
2024/04/19 03:17:47;;;;;;;;;;;;;;;-1.29;84.40;100860.44;5493327;26;19934;-71
2024/04/19 03:20:12;;;;;;;;;;;;;;;-1.33;84.27;100858.94;5525753;26;19927;-70
2024/04/19 03:22:38;;;;;;;;;;;;;;;-1.36;84.18;100852.09;5493562;26;19935;-72
2024/04/19 03:25:03;;;;;;;;;;;;;;;-1.36;84.17;100856.50;5496455;26;19972;-72
2024/04/19 03:27:29;;;;;;;;;;;;;;;-1.33;84.01;100858.94;5528922;26;20331;-71
2024/04/19 03:29:55;;;;;;;;;;;;;;;-1.34;84.23;100872.91;5526757;26;19932;-71
2024/04/19 03:32:22;;;;;;;;;;;;;;;-1.36;84.50;100849.50;5494148;26;20295;-73
2024/04/19 03:34:48;;;;;;;;;;;;;;;-1.25;84.39;100849.72;5533072;26;20257;-71
2024/04/19 03:37:13;;;;;;;;;;;;;;;-1.21;83.47;100858.25;5543093;26;19927;-72
2024/04/19 03:39:39;;;;;;;;;;;;;;;-1.24;83.52;100845.34;5505343;26;19927;-71
2024/04/19 03:42:10;;;;;;;;;;;;;;;-1.25;83.47;100851.50;5527656;26;20002;-71
2024/04/19 03:47:20;;;;;;;;;;;;;;;-1.28;83.67;100847.28;5498634;26;19938;-72
2024/04/19 03:49:45;;;;;;;;;;;;;;;-1.21;83.57;100844.34;5524838;26;19927;-71
2024/04/19 03:52:10;;;;;;;;;;;;;;;-1.12;83.66;100849.91;5491046;26;19954;-72
2024/04/19 03:54:36;;;;;;;;;;;;;;;-1.03;83.44;100845.94;5523783;26;19932;-70
2024/04/19 03:57:01;;;;;;;;;;;;;;;-0.98;82.89;100847.34;5526711;26;19928;-72
2024/04/19 03:59:26;;;;;;;;;;;;;;;-0.99;82.48;100848.28;5492249;26;19931;-71
2024/04/19 04:01:52;;;;;;;;;;;;;;;-1.08;82.74;100851.41;5491043;26;19955;-71
2024/04/19 04:04:17;;;;;;;;;;;;;;;-1.10;82.48;100840.22;5523528;26;19928;-72
2024/04/19 04:06:42;;;;;;;;;;;;;;;-1.15;82.65;100826.56;5490997;26;19943;-72
2024/04/19 04:09:08;;;;;;;;;;;;;;;-1.15;82.84;100830.94;5490890;26;19931;-71
2024/04/19 04:11:33;;;;;;;;;;;;;;;-1.16;83.06;100827.47;5523331;26;19928;-71
2024/04/19 04:13:58;;;;;;;;;;;;;;;-1.12;82.78;100823.78;5526455;26;19934;-72
2024/04/19 04:16:24;;;;;;;;;;;;;;;-1.08;83.14;100812.22;5523396;26;19931;-71
2024/04/19 04:18:49;;;;;;;;;;;;;;;-0.96;83.07;100808.03;5523573;26;19933;-72
2024/04/19 04:21:14;;;;;;;;;;;;;;;-0.90;82.13;100814.69;5522522;26;20030;-72
2024/04/19 04:23:40;;;;;;;;;;;;;;;-0.97;81.89;100804.59;5522579;26;19931;-73
2024/04/19 04:26:05;;;;;;;;;;;;;;;-0.96;82.03;100790.59;5523198;26;20330;-71
2024/04/19 04:28:30;;;;;;;;;;;;;;;-0.79;81.61;100791.41;5529066;25;19934;-70
2024/04/19 04:30:56;;;;;;;;;;;;;;;-0.73;81.12;100780.56;5529234;25;19926;-71
2024/04/19 04:33:21;;;;;;;;;;;;;;;-0.66;80.71;100787.13;5560655;25;19995;-70
2024/04/19 04:35:46;;;;;;;;;;;;;;;-0.71;80.40;100773.47;5552933;25;20022;-74
2024/04/19 04:38:12;;;;;;;;;;;;;;;-0.76;80.39;100765.91;5498516;25;19934;-71
2024/04/19 04:40:38;;;;;;;;;;;;;;;-0.72;81.01;100775.25;5533888;25;19934;-73
2024/04/19 04:43:03;;;;;;;;;;;;;;;-0.68;80.77;100762.81;5549148;25;19995;-73
2024/04/19 04:45:29;;;;;;;;;;;;;;;-0.66;79.97;100758.34;5507206;25;19928;-72
2024/04/19 04:47:54;;;;;;;;;;;;;;;-0.64;80.01;100754.69;5533995;25;19931;-74
2024/04/19 04:50:20;;;;;;;;;;;;;;;-0.65;80.05;100754.78;5513463;25;19934;-77
2024/04/19 04:52:46;;;;;;;;;;;;;;;-0.69;80.23;100746.28;5510074;26;20443;-72
2024/04/19 04:55:13;;;;;;;;;;;;;;;-0.76;80.51;100754.59;5559588;25;19938;-73
2024/04/19 04:57:38;;;;;;;;;;;;;;;-0.84;80.93;100736.75;5540229;25;19939;-73
2024/04/19 05:00:05;;;;;;;;;;;;;;;-0.87;81.34;100742.13;5536851;25;19931;-68
2024/04/19 05:02:30;;;;;;;;;;;;;;;-0.72;81.10;100737.78;5493797;26;19927;-71
2024/04/19 05:04:56;;;;;;;;;;;;;;;-0.55;80.78;100728.94;5526491;25;19994;-70
2024/04/19 05:07:22;;;;;;;;;;;;;;;-0.45;80.33;100723.06;5557267;25;19934;-69
2024/04/19 05:09:49;;;;;;;;;;;;;;;-0.44;79.81;100724.75;5497665;25;19935;-67
2024/04/19 05:12:14;;;;;;;;;;;;;;;-0.53;79.83;100725.31;5538239;25;19927;-69
2024/04/19 05:14:40;;;;;;;;;;;;;;;-0.59;80.25;100730.88;5540400;25;19934;-68
2024/04/19 05:17:05;;;;;;;;;;;;;;;-0.64;80.30;100719.84;5506658;25;19927;-69
2024/04/19 05:19:30;;;;;;;;;;;;;;;-0.65;80.76;100718.19;5531322;25;19933;-68
2024/04/19 05:21:56;;;;;;;;;;;;;;;-0.67;81.26;100701.75;5543548;25;19927;-68
2024/04/19 05:24:21;;;;;;;;;;;;;;;-0.57;81.09;100708.13;5533871;25;19938;-67
2024/04/19 05:26:46;;;;;;;;;;;;;;;-0.55;80.84;100698.41;5535018;25;20302;-67
2024/04/19 05:29:12;;;;;;;;;;;;;;;-0.52;80.93;100707.84;5499013;26;19942;-66
2024/04/19 05:31:37;;;;;;;;;;;;;;;-0.47;80.92;100688.31;5531010;25;19934;-69
2024/04/19 05:34:03;;;;;;;;;;;;;;;-0.35;80.62;100692.75;5547328;25;20795;-67
2024/04/19 05:36:29;;;;;;;;;;;;;;;-0.34;80.28;100686.59;5518057;25;19934;-69
2024/04/19 05:38:56;;;;;;;;;;;;;;;-0.44;80.55;100682.03;5507531;25;20381;-68
2024/04/19 05:41:22;;;;;;;;;;;;;;;-0.48;81.01;100691.84;5547265;25;20390;-68
2024/04/19 05:43:48;;;;;;;;;;;;;;;-0.46;81.30;100683.91;5514057;25;19927;-69
2024/04/19 05:46:16;;;;;;;;;;;;;;;-0.42;81.67;100674.94;5513802;25;19927;-69
2024/04/19 05:48:42;;;;;;;;;;;;;;;-0.38;81.25;100671.19;5499724;25;20381;-70
2024/04/19 05:51:07;;;;;;;;;;;;;;;-0.44;81.32;100669.78;5500322;25;19938;-69
2024/04/19 05:53:32;;;;;;;;;;;;;;;-0.60;81.57;100655.97;5525867;25;19927;-68
2024/04/19 05:55:58;;;;;;;;;;;;;;;-0.60;82.64;100655.97;5542130;25;19934;-70
2024/04/19 05:58:24;;;;;;;;;;;;;;;-0.58;82.51;100654.09;5537179;25;19933;-70
2024/04/19 06:00:51;;;;;;;;;;;;;;;-0.51;82.70;100644.94;5510836;25;19934;-69
2024/04/19 06:03:16;;;;;;;;;;;;;;;-0.42;82.21;100641.75;5526539;25;20646;-70
2024/04/19 06:05:43;;;;;;;;;;;;;;;-0.49;82.07;100643.09;5501176;25;19938;-69
2024/04/19 06:08:11;;;;;;;;;;;;;;;-0.63;82.61;100635.22;5545731;25;19958;-69
2024/04/19 06:10:36;;;;;;;;;;;;;;;-0.65;83.17;100626.63;5538117;25;20000;-69
2024/04/19 06:13:01;;;;;;;;;;;;;;;-0.68;83.59;100616.38;5510673;25;19947;-69
2024/04/19 06:15:27;;;;;;;;;;;;;;;-0.68;83.29;100611.13;5504582;26;19928;-69
2024/04/19 06:17:52;;;;;;;;;;;;;;;-0.74;83.49;100621.97;5500532;25;20359;-70
2024/04/19 06:20:18;;;;;;;;;;;;;;;-0.65;83.47;100603.94;5498693;25;20473;-69
2024/04/19 06:22:43;;;;;;;;;;;;;;;-0.54;83.40;100586.75;5545211;25;19938;-70
2024/04/19 06:25:09;;;;;;;;;;;;;;;-0.45;83.20;100589.63;5499741;25;19927;-68
2024/04/19 06:27:34;;;;;;;;;;;;;;;-0.49;82.91;100577.69;5514869;25;19939;-68
2024/04/19 06:29:59;;;;;;;;;;;;;;;-0.51;82.92;100576.94;5513164;25;19935;-68
2024/04/19 06:32:25;;;;;;;;;;;;;;;-0.53;83.58;100570.13;5543137;25;19935;-69
2024/04/19 06:34:51;;;;;;;;;;;;;;;-0.53;83.35;100563.13;5537540;25;19935;-69
2024/04/19 06:37:16;;;;;;;;;;;;;;;-0.53;83.85;100563.13;5561954;25;19927;-70
2024/04/19 06:39:43;;;;;;;;;;;;;;;-0.50;83.48;100544.59;5546506;25;19935;-71
2024/04/19 06:42:08;;;;;;;;;;;;;;;-0.42;83.42;100539.72;5514800;25;19938;-68
2024/04/19 06:44:33;;;;;;;;;;;;;;;-0.35;82.54;100551.47;5504169;25;19931;-69
2024/04/19 06:46:59;;;;;;;;;;;;;;;-0.46;83.21;100527.78;5537307;25;19928;-70
2024/04/19 06:49:24;;;;;;;;;;;;;;;-0.53;84.01;100531.72;5547035;25;19928;-68
2024/04/19 06:51:49;;;;;;;;;;;;;;;-0.55;83.94;100540.63;5545553;25;19937;-71
2024/04/19 06:54:14;;;;;;;;;;;;;;;-0.65;83.99;100528.09;5495754;25;19928;-69
2024/04/19 06:56:40;;;;;;;;;;;;;;;-0.68;84.25;100532.69;5511375;26;19927;-71
2024/04/19 06:59:06;;;;;;;;;;;;;;;-0.70;84.26;100524.09;5545728;25;19928;-70
2024/04/19 07:01:33;;;;;;;;;;;;;;;-0.74;84.80;100520.00;5536682;25;19995;-69
2024/04/19 07:03:58;;;;;;;;;;;;;;;-0.74;84.58;100512.16;5534205;25;20017;-70
2024/04/19 07:06:23;;;;;;;;;;;;;;;-0.77;84.70;100512.34;5539931;25;20378;-70
2024/04/19 07:08:49;;;;;;;;;;;;;;;-0.82;84.87;100504.81;5531355;25;20010;-69
2024/04/19 07:11:14;;;;;;;;;;;;;;;-0.84;85.24;100490.16;5512440;26;19928;-69
2024/04/19 07:13:41;;;;;;;;;;;;;;;-0.74;85.15;100492.06;5525329;25;20006;-68
2024/04/19 07:16:06;;;;;;;;;;;;;;;-0.57;84.56;100496.25;5557373;25;20010;-69
2024/04/19 07:18:32;;;;;;;;;;;;;;;-0.55;84.04;100496.97;5502726;25;19943;-70
2024/04/19 07:20:57;;;;;;;;;;;;;;;-0.65;84.14;100491.47;5546960;25;19938;-70
2024/04/19 07:23:23;;;;;;;;;;;;;;;-0.70;84.82;100484.88;5550197;25;19927;-69
2024/04/19 07:25:48;;;;;;;;;;;;;;;-0.70;84.81;100492.72;5555209;25;19927;-72
2024/04/19 07:28:14;;;;;;;;;;;;;;;-0.67;84.87;100488.13;5535522;25;19934;-70
2024/04/19 07:30:39;;;;;;;;;;;;;;;-0.58;84.00;100481.47;5541194;25;19934;-71
2024/04/19 07:33:05;;;;;;;;;;;;;;;-0.71;83.94;100480.56;5550180;25;19927;-70
2024/04/19 07:35:30;;;;;;;;;;;;;;;-0.71;83.67;100475.34;5523843;25;19926;-69
2024/04/19 07:37:57;;;;;;;;;;;;;;;-0.83;84.14;100463.91;5527817;25;19932;-69
2024/04/19 07:40:25;;;;;;;;;;;;;;;-0.87;84.73;100469.41;5513716;25;19934;-70
2024/04/19 07:42:50;;;;;;;;;;;;;;;-0.79;84.79;100467.16;5513639;25;20320;-70
2024/04/19 07:45:18;;;;;;;;;;;;;;;-0.73;85.04;100464.97;5505118;26;19968;-69
2024/04/19 07:47:44;;;;;;;;;;;;;;;-0.60;84.55;100470.25;5536543;25;19928;-69
2024/04/19 07:50:10;;;;;;;;;;;;;;;-0.50;83.63;100468.75;5517407;25;19927;-70
2024/04/19 07:52:35;;;;;;;;;;;;;;;-0.49;82.67;100475.66;5540140;25;19927;-69
2024/04/19 07:55:00;;;;;;;;;;;;;;;-0.49;82.48;100488.72;5502546;25;19939;-70
2024/04/19 07:57:26;;;;;;;;;;;;;;;-0.48;82.60;100487.78;5536868;25;19927;-70
2024/04/19 07:59:51;;;;;;;;;;;;;;;-0.49;82.27;100499.19;5500791;25;19927;-70
2024/04/19 08:02:17;;;;;;;;;;;;;;;-0.55;82.00;100493.53;5469473;25;20393;-70
2024/04/19 08:04:43;;;;;;;;;;;;;;;-0.53;82.66;100491.66;5515714;25;20457;-71
2024/04/19 08:07:09;;;;;;;;;;;;;;;-0.52;81.67;100515.09;5531444;25;19931;-69
2024/04/19 08:09:34;;;;;;;;;;;;;;;-0.65;82.45;100496.72;5552918;25;19931;-71
2024/04/19 08:12:02;;;;;;;;;;;;;;;-0.72;82.45;100495.44;5542692;25;20393;-70
2024/04/19 08:14:27;;;;;;;;;;;;;;;-0.70;83.24;100496.16;5510198;25;19927;-69
2024/04/19 08:16:53;;;;;;;;;;;;;;;-0.69;83.54;100490.00;5525475;25;19933;-71
2024/04/19 08:19:21;;;;;;;;;;;;;;;-0.80;85.46;100502.09;5516645;26;19927;-70
2024/04/19 08:21:54;;;;;;;;;;;;;;;-0.97;89.23;100484.84;5468546;26;19928;-70
2024/04/19 08:24:20;;;;;;;;;;;;;;;-1.22;97.78;100469.84;5439538;26;19938;-69
2024/04/19 08:26:45;;;;;;;;;;;;;;;-1.30;100.00;100470.31;5498350;25;19927;-70
2024/04/19 08:29:11;;;;;;;;;;;;;;;-1.36;100.00;100462.84;5473203;25;20386;-69
2024/04/19 08:31:36;;;;;;;;;;;;;;;-1.30;100.00;100465.09;5513743;26;20393;-69
2024/04/19 08:34:01;;;;;;;;;;;;;;;-1.20;100.00;100447.06;5551484;25;19934;-69
2024/04/19 08:36:27;;;;;;;;;;;;;;;-1.17;100.00;100441.63;5536389;25;19931;-70
2024/04/19 08:38:52;;;;;;;;;;;;;;;-1.23;100.00;100425.50;5541667;25;19942;-73
2024/04/19 08:41:18;;;;;;;;;;;;;;;-1.34;100.00;100431.41;5498242;25;20000;-68
2024/04/19 08:43:45;;;;;;;;;;;;;;;-1.34;100.00;100428.78;5534406;25;21189;-69
2024/04/19 08:46:10;;;;;;;;;;;;;;;-1.34;100.00;100408.75;5525520;25;20169;-70
2024/04/19 08:48:36;;;;;;;;;;;;;;;-1.37;100.00;100408.94;5513051;26;20339;-70
2024/04/19 08:51:02;;;;;;;;;;;;;;;-1.35;100.00;100398.38;5509149;25;19935;-69
2024/04/19 08:53:27;;;;;;;;;;;;;;;-1.31;100.00;100390.25;5553394;25;19937;-68
2024/04/19 08:55:53;;;;;;;;;;;;;;;-1.31;100.00;100382.41;5512038;26;20302;-67
2024/04/19 08:58:19;;;;;;;;;;;;;;;-1.15;100.00;100364.00;5448483;26;20500;-70
2024/04/19 09:00:45;;;;;;;;;;;;;;;-1.26;100.00;100369.06;5542158;25;19931;-72
2024/04/19 09:03:11;;;;;;;;;;;;;;;-1.31;100.00;100360.69;5547066;25;19928;-73
2024/04/19 09:05:36;;;;;;;;;;;;;;;-1.29;100.00;100335.31;5509930;25;19928;-70
2024/04/19 09:08:01;;;;;;;;;;;;;;;-1.37;100.00;100327.13;5547458;25;19928;-70
2024/04/19 09:10:27;;;;;;;;;;;;;;;-1.45;100.00;100324.13;5547333;25;19928;-71
2024/04/19 09:12:52;;;;;;;;;;;;;;;-1.51;100.00;100312.31;5543319;25;19928;-72
2024/04/19 09:15:18;;;;;;;;;;;;;;;-1.45;100.00;100305.84;5557878;25;19995;-74
2024/04/19 09:17:45;;;;;;;;;;;;;;;-1.40;100.00;100322.09;5545499;25;19989;-73
2024/04/19 09:20:11;;;;;;;;;;;;;;;-1.37;100.00;100319.28;5504061;25;19927;-71
2024/04/19 09:22:36;;;;;;;;;;;;;;;-1.42;100.00;100313.50;5530017;25;19938;-72
2024/04/19 09:25:01;;;;;;;;;;;;;;;-1.40;100.00;100309.03;5529145;25;20384;-70
2024/04/19 09:27:29;;;;;;;;;;;;;;;-1.34;100.00;100311.25;5541843;25;19933;-72
2024/04/19 09:29:55;;;;;;;;;;;;;;;-1.54;100.00;100290.78;5548082;25;19935;-72
2024/04/19 09:32:21;;;;;;;;;;;;;;;-1.60;100.00;100292.84;5516572;25;19938;-72
2024/04/19 09:34:51;;;;;;;;;;;;;;;-1.61;100.00;100283.34;5544453;25;19927;-69
2024/04/19 09:37:26;;;;;;;;;;;;;;;-1.57;100.00;100271.75;5514400;26;19935;-67
2024/04/19 09:39:52;;;;;;;;;;;;;;;-1.50;100.00;100258.28;5495484;26;19935;-70
2024/04/19 09:42:17;;;;;;;;;;;;;;;-1.71;100.00;100248.31;5531785;25;19976;-69
2024/04/19 09:44:49;;;;;;;;;;;;;;;-1.76;100.00;100260.78;5551232;25;19927;-72
2024/04/19 09:47:15;;;;;;;;;;;;;;;-1.80;100.00;100248.88;5546182;25;20402;-72
2024/04/19 09:49:44;;;;;;;;;;;;;;;-1.78;100.00;100247.00;5490438;26;20311;-73
2024/04/19 09:52:18;;;;;;;;;;;;;;;-1.78;100.00;100230.50;5502535;25;19995;-71
2024/04/19 09:54:45;;;;;;;;;;;;;;;-1.64;100.00;100220.88;5511903;25;19926;-73
2024/04/19 09:57:10;;;;;;;;;;;;;;;-1.60;100.00;100211.91;5544524;25;19934;-70
2024/04/19 09:59:37;;;;;;;;;;;;;;;-1.64;100.00;100218.25;5545569;25;19927;-69
2024/04/19 10:02:03;;;;;;;;;;;;;;;-1.49;100.00;100205.13;5541583;25;19963;-73
2024/04/19 10:04:32;;;;;;;;;;;;;;;-1.49;100.00;100205.97;5551839;25;19927;-68
2024/04/19 10:06:58;;;;;;;;;;;;;;;-1.52;100.00;100195.72;5489938;26;20386;-71
2024/04/19 10:09:27;;;;;;;;;;;;;;;-1.66;100.00;100196.63;5515632;25;19934;-69
2024/04/19 10:11:56;;;;;;;;;;;;;;;-1.78;100.00;100199.16;5534885;25;20260;-68
2024/04/19 10:14:29;;;;;;;;;;;;;;;-1.75;100.00;100186.75;5499712;26;20390;-75
2024/04/19 10:16:54;;;;;;;;;;;;;;;-1.73;100.00;100184.91;5496016;26;19927;-74
2024/04/19 10:19:20;;;;;;;;;;;;;;;-1.96;100.00;100190.75;5537059;25;19953;-71
2024/04/19 10:21:51;;;;;;;;;;;;;;;-2.10;100.00;100182.94;5548330;25;20452;-69
2024/04/19 10:24:17;;;;;;;;;;;;;;;-2.11;100.00;100173.44;5497140;25;20425;-70
2024/04/19 10:26:50;;;;;;;;;;;;;;;-2.11;100.00;100178.66;5510418;25;19928;-70
2024/04/19 10:29:17;;;;;;;;;;;;;;;-2.15;100.00;100175.41;5464122;25;19935;-70
2024/04/19 10:31:47;;;;;;;;;;;;;;;-2.09;100.00;100179.41;5563140;25;19934;-67
2024/04/19 10:34:12;;;;;;;;;;;;;;;-2.21;100.00;100174.03;5543506;25;19935;-72
2024/04/19 10:36:38;;;;;;;;;;;;;;;-2.23;100.00;100168.06;5506326;25;19927;-70
2024/04/19 10:39:04;;;;;;;;;;;;;;;-2.21;100.00;100155.75;5547473;25;19932;-68
2024/04/19 10:41:29;;;;;;;;;;;;;;;-2.27;100.00;100161.38;5540335;25;19937;-70
2024/04/19 10:43:54;;;;;;;;;;;;;;;-2.29;100.00;100160.63;5527668;25;19996;-70
2024/04/19 10:46:20;;;;;;;;;;;;;;;-2.34;100.00;100169.66;5549560;25;19935;-69
2024/04/19 10:48:45;;;;;;;;;;;;;;;-2.29;100.00;100168.47;5544322;25;19927;-73
2024/04/19 10:51:13;;;;;;;;;;;;;;;-2.29;100.00;100163.25;5512997;25;19928;-71
2024/04/19 10:53:39;;;;;;;;;;;;;;;-2.31;100.00;100152.06;5529690;25;19928;-70
2024/04/19 10:56:04;;;;;;;;;;;;;;;-2.38;100.00;100152.53;5502855;26;19934;-69
2024/04/19 10:58:30;;;;;;;;;;;;;;;-2.44;100.00;100148.53;5507953;25;19930;-69
2024/04/19 11:00:55;;;;;;;;;;;;;;;-2.30;100.00;100145.91;5538778;25;19935;-71
2024/04/19 11:03:21;;;;;;;;;;;;;;;-2.15;100.00;100133.66;5508047;25;19940;-68
2024/04/19 11:05:46;;;;;;;;;;;;;;;-2.14;100.00;100129.28;5547742;25;20388;-71
2024/04/19 11:08:11;;;;;;;;;;;;;;;-2.05;100.00;100139.13;5544133;25;19928;-69
2024/04/19 11:10:37;;;;;;;;;;;;;;;-2.06;100.00;100134.84;5542940;25;19935;-72
2024/04/19 11:13:03;;;;;;;;;;;;;;;-2.03;100.00;100121.59;5541819;25;19927;-70
2024/04/19 11:15:30;;;;;;;;;;;;;;;-2.03;100.00;100111.16;5543272;25;19927;-69
2024/04/19 11:17:55;;;;;;;;;;;;;;;-2.13;100.00;100123.97;5542740;25;20378;-71
2024/04/19 11:20:21;;;;;;;;;;;;;;;-2.10;100.00;100120.31;5531153;25;19952;-71
2024/04/19 11:22:46;;;;;;;;;;;;;;;-2.02;100.00;100118.09;5543607;25;19927;-71
2024/04/19 11:25:11;;;;;;;;;;;;;;;-2.02;100.00;100105.88;5513174;25;19953;-72
2024/04/19 11:27:37;;;;;;;;;;;;;;;-2.13;100.00;100084.84;5547023;25;19927;-71
2024/04/19 11:30:03;;;;;;;;;;;;;;;-2.15;100.00;100076.28;5537227;25;19927;-73
2024/04/19 11:32:29;;;;;;;;;;;;;;;-2.10;100.00;100087.25;5505416;25;19934;-68
2024/04/19 11:34:58;;;;;;;;;;;;;;;-2.15;100.00;100093.69;5536351;25;19996;-71
2024/04/19 11:37:27;;;;;;;;;;;;;;;-2.27;100.00;100090.13;5541602;25;19933;-68
2024/04/19 11:39:52;;;;;;;;;;;;;;;-2.34;100.00;100081.81;5538254;25;20431;-67
2024/04/19 11:42:18;;;;;;;;;;;;;;;-2.29;100.00;100100.66;5545050;25;19938;-68
2024/04/19 11:44:44;;;;;;;;;;;;;;;-2.14;100.00;100113.63;5514942;25;20286;-72
2024/04/19 11:47:11;;;;;;;;;;;;;;;-2.15;100.00;100099.75;5508073;25;20470;-70
2024/04/19 11:49:37;;;;;;;;;;;;;;;-2.19;100.00;100096.50;5540396;25;19991;-67
2024/04/19 11:52:04;;;;;;;;;;;;;;;-2.28;100.00;100091.88;5541881;25;19940;-70
2024/04/19 11:54:31;;;;;;;;;;;;;;;-2.22;100.00;100101.94;5546873;25;19934;-70
2024/04/19 11:56:57;;;;;;;;;;;;;;;-2.20;100.00;100076.56;5535177;25;20401;-69
2024/04/19 11:59:23;;;;;;;;;;;;;;;-2.17;100.00;100062.50;5542466;25;19939;-68
2024/04/19 12:01:50;;;;;;;;;;;;;;;-2.22;100.00;100054.97;5500234;25;19935;-67
2024/04/19 12:04:16;;;;;;;;;;;;;;;-2.17;100.00;100066.88;5546133;25;20014;-67
2024/04/19 12:06:41;;;;;;;;;;;;;;;-2.13;100.00;100052.69;5545026;25;19938;-74
2024/04/19 12:09:07;;;;;;;;;;;;;;;-2.16;100.00;100047.69;5535765;25;20363;-72
2024/04/19 12:11:32;;;;;;;;;;;;;;;-2.17;100.00;100027.75;5533841;25;19939;-73
2024/04/19 12:13:58;;;;;;;;;;;;;;;-2.04;100.00;100020.78;5480750;25;19934;-72
2024/04/19 12:16:23;;;;;;;;;;;;;;;-2.03;100.00;100009.41;5540567;25;19955;-67
2024/04/19 12:18:49;;;;;;;;;;;;;;;-2.06;100.00;100004.41;5505618;25;19937;-71
2024/04/19 12:21:15;;;;;;;;;;;;;;;-2.07;100.00;99997.50;5547153;25;19955;-69
2024/04/19 12:23:41;;;;;;;;;;;;;;;-2.08;100.00;99993.22;5508343;25;19943;-72
2024/04/19 12:26:06;;;;;;;;;;;;;;;-2.02;100.00;99987.63;5542942;25;19927;-70
2024/04/19 12:28:32;;;;;;;;;;;;;;;-2.08;100.00;99977.56;5535974;25;20003;-67
2024/04/19 12:30:57;;;;;;;;;;;;;;;-2.13;100.00;99974.44;5505665;25;19952;-72